Accueil
METAR-TAF:

METAR-TAF

Aéroports :

Base aérienne de Coxyde

Coxyde, Belgique

latitude: 51-05N, longitude: 002-39E, altitude: 4 m

Observation

Le bulletin a été fait il y a 5 heures et 34 minutes, à 00:25 UTC
Vent 1 kt de direction variable
Température 3°C
Humidité 65%
Pression 1024 hPa
Visibilité 10 km ou plus

METAR: EBFN 080025Z AUTO VRB01KT 9999 OVC035/// 03/M03 Q1024 BLU

Heure: 06:59 (05:59 UTC)

Prévision

Le bulletin a été fait il y a 13 heures et 46 minutes, à 16:13 UTC
Prévision valable du 07 à 19 UTC au 08 à 07 UTC
Vent 4 kt de nord/nord-est
Visibilité 10 km ou plus
Nuages épars à une hauteur de 3500 ft

TAF: EBFN 071613Z 0719/0807 03004KT 9999 SCT035 BY EBWM

Observations et prévisions météorologiques de plus de 4000 aéroports (messages METAR et TAF).

Les stations disponibles sont représentées par des disques jaunes et rouges sur la carte.

Passer la souris dessus pour voir le nom de la station.

Cliquer dessus pour voir les observations et prévisions météorologiques.

Pour changer de carte: cliquez sur les boutons verts avec une croix noire pour zoomer, sur le bouton vert avec un tiret pour effectuer un zoom arrière, ou sur les flèches vertes pour les cartes adjacentes.


METAR-TAF: